Time;durP1;ratioP1;P1;durP2;ratioP2;P2;SDS_P1;SDS_P2;PMS_P1;PMS_P2;Temp;Humidity;BMP_temperature;BMP_pressure;BME280_temperature;BME280_humidity;BME280_pressure;Samples;Min_cycle;Max_cycle;Signal;HPM_P1;HPM_P2
2023/02/28 00:02:24;;;;;;;7.40;3.08;;;;;;;8.37;42.87;102794.19;5063963;27;97305;-71
2023/02/28 00:05:00;;;;;;;7.45;2.25;;;;;;;8.22;43.06;102797.56;5069015;27;99473;-71
2023/02/28 00:07:27;;;;;;;5.70;2.60;;;;;;;8.04;43.54;102794.78;5067928;27;99345;-71
2023/02/28 00:09:53;;;;;;;5.35;2.50;;;;;;;8.25;43.36;102797.59;5061881;27;98895;-72
2023/02/28 00:12:20;;;;;;;5.80;2.50;;;;;;;8.14;43.66;102793.97;5065893;27;97346;-71
2023/02/28 00:14:46;;;;;;;7.68;2.70;;;;;;;8.38;43.31;102804.72;5064952;27;97758;-72
2023/02/28 00:17:13;;;;;;;6.05;2.85;;;;;;;8.36;43.54;102803.84;5068091;27;99356;-71
2023/02/28 00:19:40;;;;;;;9.95;3.33;;;;;;;8.39;43.48;102795.97;5067025;27;99991;-72
2023/02/28 00:22:07;;;;;;;6.35;3.20;;;;;;;7.83;44.52;102798.13;5068729;27;96863;-72
2023/02/28 00:24:33;;;;;;;7.18;3.15;;;;;;;8.12;44.06;102797.50;5061921;27;97659;-71
2023/02/28 00:26:59;;;;;;;6.45;2.95;;;;;;;8.11;44.24;102798.34;5067056;27;101678;-71
2023/02/28 00:29:26;;;;;;;7.53;2.78;;;;;;;8.13;43.96;102794.88;5068651;27;98893;-71
2023/02/28 00:31:52;;;;;;;5.95;2.83;;;;;;;8.06;43.96;102800.09;5066279;27;96872;-72
2023/02/28 00:34:19;;;;;;;7.57;3.40;;;;;;;8.21;43.47;102800.16;5072116;27;96936;-71
2023/02/28 00:36:49;;;;;;;5.80;2.60;;;;;;;8.28;42.93;102808.13;5066469;27;99365;-72
2023/02/28 00:39:16;;;;;;;5.05;2.53;;;;;;;8.44;43.04;102809.16;5059519;27;98809;-71
2023/02/28 00:41:43;;;;;;;9.93;3.25;;;;;;;8.40;43.13;102804.75;5068550;27;96790;-71
2023/02/28 00:44:09;;;;;;;5.10;2.92;;;;;;;8.34;43.08;102809.94;5066011;27;98546;-72
2023/02/28 00:46:36;;;;;;;6.72;2.83;;;;;;;8.57;42.72;102804.84;5068815;27;99285;-71
2023/02/28 00:49:02;;;;;;;5.57;2.78;;;;;;;8.38;42.80;102803.84;5067605;27;98749;-71
2023/02/28 00:51:28;;;;;;;6.15;2.88;;;;;;;8.23;43.08;102801.06;5053898;27;97493;-71
2023/02/28 00:53:56;;;;;;;10.73;2.88;;;;;;;8.29;42.94;102804.63;5066286;27;97852;-71
2023/02/28 00:56:23;;;;;;;7.57;2.92;;;;;;;8.36;42.87;102806.47;5064099;27;99258;-72
2023/02/28 00:58:49;;;;;;;6.47;3.22;;;;;;;8.44;42.86;102803.00;5070680;27;100718;-72
2023/02/28 01:01:15;;;;;;;7.70;3.00;;;;;;;8.39;42.92;102803.88;5058445;27;97524;-73
2023/02/28 01:03:42;;;;;;;11.27;3.50;;;;;;;8.36;42.90;102808.22;5067106;27;96767;-71
2023/02/28 01:06:08;;;;;;;6.00;3.03;;;;;;;8.24;43.34;102803.72;5064412;27;98858;-72
2023/02/28 01:08:34;;;;;;;6.90;3.00;;;;;;;8.20;43.70;102804.59;5067136;27;99655;-72
2023/02/28 01:11:10;;;;;;;7.53;2.60;;;;;;;8.32;43.40;102799.44;5066326;27;97240;-72
2023/02/28 01:13:43;;;;;;;7.22;3.38;;;;;;;8.04;43.94;102807.97;5063347;27;97859;-72
2023/02/28 01:16:10;;;;;;;5.90;3.10;;;;;;;8.10;44.18;102807.13;5065623;27;98889;-72
2023/02/28 01:18:37;;;;;;;6.90;2.78;;;;;;;8.04;44.68;102807.97;5065797;27;99749;-71
2023/02/28 01:21:04;;;;;;;5.22;2.75;;;;;;;7.97;43.97;102800.88;5066500;27;96786;-72
2023/02/28 01:23:31;;;;;;;7.07;3.25;;;;;;;7.73;44.57;102798.06;5065559;27;97139;-71
2023/02/28 01:25:58;;;;;;;7.32;3.45;;;;;;;7.73;44.91;102793.69;5064316;27;99302;-71
2023/02/28 01:28:26;;;;;;;8.15;3.35;;;;;;;7.75;44.33;102791.91;5063850;27;97723;-72
2023/02/28 01:30:53;;;;;;;6.28;3.03;;;;;;;7.87;44.45;102793.81;5068084;27;97276;-72
2023/02/28 01:33:19;;;;;;;10.23;3.10;;;;;;;7.73;44.47;102792.78;5068080;27;96828;-71
2023/02/28 01:35:46;;;;;;;8.68;3.33;;;;;;;7.86;44.23;102784.13;5065363;27;97809;-71
2023/02/28 01:38:12;;;;;;;8.52;2.67;;;;;;;7.65;44.57;102790.09;5065149;27;98097;-71
2023/02/28 01:40:39;;;;;;;8.13;3.45;;;;;;;7.33;45.66;102784.53;5066944;27;98606;-72
2023/02/28 01:43:19;;;;;;;7.15;2.97;;;;;;;7.37;46.24;102783.69;5067491;27;97331;-72
2023/02/28 01:45:47;;;;;;;8.07;3.22;;;;;;;7.55;46.37;102791.75;5064962;27;98878;-73
2023/02/28 01:48:15;;;;;;;6.13;3.25;;;;;;;7.65;45.93;102784.84;5065003;27;98781;-72
2023/02/28 01:50:46;;;;;;;6.47;2.88;;;;;;;7.40;46.10;102777.59;5058681;27;98994;-72
2023/02/28 01:53:16;;;;;;;5.68;2.83;;;;;;;7.50;45.92;102785.56;5066956;27;96843;-71
2023/02/28 01:55:47;;;;;;;8.43;3.10;;;;;;;7.51;45.94;102786.44;5067537;27;101803;-73
2023/02/28 01:58:14;;;;;;;6.03;3.20;;;;;;;7.44;45.94;102788.13;5065419;27;99557;-73
2023/02/28 02:00:42;;;;;;;6.43;2.97;;;;;;;7.41;45.88;102784.63;5065759;27;97168;-72
2023/02/28 02:03:13;;;;;;;9.50;3.65;;;;;;;7.50;45.81;102790.81;5064326;27;96992;-72
2023/02/28 02:05:41;;;;;;;7.90;3.55;;;;;;;7.44;45.93;102782.88;5061511;27;98719;-72
2023/02/28 02:08:11;;;;;;;5.75;2.85;;;;;;;7.39;46.11;102792.47;5063982;27;99550;-72
2023/02/28 02:10:41;;;;;;;7.88;3.38;;;;;;;7.35;46.23;102788.03;5063258;27;97294;-73
2023/02/28 02:13:32;;;;;;;10.48;2.97;;;;;;;7.13;47.12;102784.31;5068830;27;98536;-71
2023/02/28 02:16:09;;;;;;;6.65;3.25;;;;;;;6.75;48.33;102791.75;5069342;27;99263;-72
2023/02/28 02:18:45;;;;;;;7.57;3.13;;;;;;;6.82;48.07;102797.09;5069584;27;99179;-71
2023/02/28 02:21:44;;;;;;;13.10;3.20;;;;;;;6.69;48.27;102789.06;5069163;27;98808;-72
2023/02/28 02:24:30;;;;;;;8.18;2.97;;;;;;;6.69;47.95;102788.19;5066838;27;97646;-73
2023/02/28 02:27:09;;;;;;;6.07;2.90;;;;;;;6.58;48.51;102790.63;5071628;27;98016;-71
2023/02/28 02:29:53;;;;;;;9.70;3.42;;;;;;;6.70;47.79;102782.91;5069741;27;100602;-71
2023/02/28 02:32:38;;;;;;;6.53;3.15;;;;;;;6.49;48.98;102782.66;5071357;27;97384;-71
2023/02/28 02:35:13;;;;;;;5.90;3.08;;;;;;;6.64;48.73;102785.47;5070461;27;97012;-71
2023/02/28 02:37:44;;;;;;;8.95;3.30;;;;;;;6.46;49.12;102779.09;5068406;27;99316;-71
2023/02/28 02:40:17;;;;;;;9.88;4.28;;;;;;;6.46;49.35;102786.97;5070741;27;101437;-71
2023/02/28 02:42:51;;;;;;;11.32;3.72;;;;;;;6.31;49.67;102779.75;5070782;27;98571;-71
2023/02/28 02:45:24;;;;;;;6.18;2.80;;;;;;;6.29;49.46;102787.63;5067269;27;97131;-71
2023/02/28 02:47:52;;;;;;;8.15;3.05;;;;;;;6.35;49.38;102787.72;5066128;27;99115;-71
2023/02/28 02:50:24;;;;;;;9.38;3.72;;;;;;;6.37;49.36;102783.34;5062300;27;99011;-72
2023/02/28 02:52:56;;;;;;;8.02;3.40;;;;;;;6.25;49.96;102785.81;5064954;27;97147;-71
2023/02/28 02:55:24;;;;;;;10.35;3.55;;;;;;;6.18;49.62;102785.69;5065297;27;96883;-71
2023/02/28 02:57:54;;;;;;;7.57;3.67;;;;;;;6.04;50.39;102784.63;5070333;27;97616;-72
2023/02/28 03:00:26;;;;;;;5.65;3.38;;;;;;;6.19;50.05;102783.09;5068715;27;98789;-69
2023/02/28 03:02:55;;;;;;;7.03;3.78;;;;;;;5.89;50.61;102791.38;5072507;27;97096;-71
2023/02/28 03:05:26;;;;;;;6.45;3.17;;;;;;;5.83;51.09;102796.50;5070438;27;97204;-71
2023/02/28 03:07:53;;;;;;;11.38;4.05;;;;;;;5.84;51.35;102787.75;5072697;27;99315;-70
2023/02/28 03:10:36;;;;;;;6.65;3.17;;;;;;;5.91;51.03;102792.28;5068587;27;99748;-71
2023/02/28 03:13:38;;;;;;;6.72;3.33;;;;;;;6.03;50.33;102793.34;5068316;27;96782;-71
2023/02/28 03:16:23;;;;;;;8.68;3.42;;;;;;;5.91;50.68;102800.16;5065583;27;96904;-71
2023/02/28 03:18:55;;;;;;;8.80;3.65;;;;;;;5.75;50.55;102799.84;5065485;27;102146;-70
2023/02/28 03:21:31;;;;;;;13.35;3.92;;;;;;;5.56;50.67;102796.03;5065254;27;101443;-70
2023/02/28 03:24:04;;;;;;;10.25;3.67;;;;;;;5.70;51.10;102793.66;5062522;27;97848;-71
2023/02/28 03:26:34;;;;;;;8.02;3.45;;;;;;;5.64;51.48;102799.69;5071684;27;96878;-72
2023/02/28 03:29:05;;;;;;;8.25;3.85;;;;;;;5.35;53.06;102803.50;5063945;27;99540;-72
2023/02/28 03:31:38;;;;;;;8.25;3.45;;;;;;;5.41;52.41;102807.13;5068349;27;99140;-72
2023/02/28 03:34:08;;;;;;;10.52;3.70;;;;;;;5.74;51.97;102803.31;5069883;27;96905;-71
2023/02/28 03:36:43;;;;;;;10.65;3.47;;;;;;;5.69;51.82;102807.63;5068775;27;96780;-70
2023/02/28 03:39:15;;;;;;;8.03;3.17;;;;;;;5.71;51.31;102808.53;5059229;27;98864;-71
2023/02/28 03:41:47;;;;;;;7.50;3.13;;;;;;;5.53;52.33;102798.59;5063991;27;98908;-70
2023/02/28 03:44:17;;;;;;;7.55;3.45;;;;;;;5.49;52.31;102808.16;5066671;27;98746;-71
2023/02/28 03:46:49;;;;;;;9.70;3.72;;;;;;;5.49;52.59;102808.16;5067684;27;99118;-70
2023/02/28 03:49:19;;;;;;;9.70;4.20;;;;;;;5.49;52.60;102810.78;5061656;27;99037;-71
2023/02/28 03:51:50;;;;;;;10.75;3.90;;;;;;;5.31;53.42;102810.44;5067685;27;99498;-71
2023/02/28 03:54:23;;;;;;;8.38;3.85;;;;;;;5.11;53.65;102812.69;5066666;27;96664;-71
2023/02/28 03:56:56;;;;;;;7.40;3.83;;;;;;;5.24;53.13;102813.78;5067115;27;96958;-71
2023/02/28 03:59:27;;;;;;;5.68;3.40;;;;;;;5.25;54.01;102806.81;5070317;27;98894;-70
2023/02/28 04:01:55;;;;;;;8.52;3.38;;;;;;;5.14;54.26;102812.72;5063758;27;99310;-72
2023/02/28 04:04:21;;;;;;;12.05;3.72;;;;;;;5.17;53.73;102811.91;5065705;27;96907;-70
2023/02/28 04:06:51;;;;;;;7.43;3.40;;;;;;;5.09;53.82;102808.25;5066585;27;96906;-70
2023/02/28 04:09:17;;;;;;;9.48;3.85;;;;;;;5.18;53.51;102816.31;5067465;27;99226;-72
2023/02/28 04:11:46;;;;;;;9.98;4.53;;;;;;;5.44;53.38;102815.06;5068831;27;99124;-70
2023/02/28 04:14:13;;;;;;;8.55;3.88;;;;;;;5.23;54.07;102814.66;5064453;27;98919;-70
2023/02/28 04:16:41;;;;;;;8.90;4.10;;;;;;;5.15;53.61;102817.13;5067395;27;96890;-70
2023/02/28 04:19:10;;;;;;;7.85;4.10;;;;;;;5.10;54.13;102810.91;5067636;27;97799;-72
2023/02/28 04:21:38;;;;;;;11.05;4.00;;;;;;;5.07;54.31;102808.22;5070481;27;99107;-71
2023/02/28 04:24:07;;;;;;;14.52;4.22;;;;;;;5.07;54.10;102815.19;5068640;27;97007;-72
2023/02/28 04:26:36;;;;;;;10.70;4.00;;;;;;;4.97;54.41;102821.13;5073025;27;97002;-74
2023/02/28 04:29:04;;;;;;;11.20;4.05;;;;;;;5.13;53.36;102816.19;5069525;27;99130;-73
2023/02/28 04:31:30;;;;;;;9.25;3.83;;;;;;;5.00;54.80;102819.41;5066162;27;99169;-73
2023/02/28 04:33:57;;;;;;;9.63;4.00;;;;;;;5.03;54.17;102827.34;5068959;27;97102;-73
2023/02/28 04:36:23;;;;;;;7.57;3.95;;;;;;;5.02;54.59;102828.22;5065745;27;97268;-75
2023/02/28 04:38:50;;;;;;;10.18;4.20;;;;;;;4.91;54.58;102824.50;5065535;27;97592;-73
2023/02/28 04:41:18;;;;;;;7.90;3.88;;;;;;;5.08;54.44;102822.19;5068693;27;98703;-74
2023/02/28 04:43:44;;;;;;;10.55;4.57;;;;;;;4.97;54.82;102824.63;5069075;27;97171;-74
2023/02/28 04:46:11;;;;;;;13.20;4.68;;;;;;;4.87;54.74;102824.38;5069822;27;97309;-74
2023/02/28 04:48:39;;;;;;;9.18;4.55;;;;;;;4.98;54.63;102829.00;5065490;27;100614;-74
2023/02/28 04:51:08;;;;;;;13.02;4.45;;;;;;;5.04;54.92;102823.00;5067679;27;99173;-73
2023/02/28 04:53:35;;;;;;;8.10;4.05;;;;;;;4.97;54.80;102821.13;5066702;27;97156;-73
2023/02/28 04:56:02;;;;;;;10.15;4.47;;;;;;;5.10;54.55;102826.63;5070258;27;96979;-73
2023/02/28 04:58:30;;;;;;;11.95;4.63;;;;;;;5.00;54.61;102823.78;5065996;27;99249;-74
2023/02/28 05:01:02;;;;;;;10.55;4.95;;;;;;;5.09;53.93;102823.97;5067292;27;99231;-74
2023/02/28 05:03:29;;;;;;;10.20;4.22;;;;;;;5.05;54.45;102828.28;5063514;27;96937;-74
2023/02/28 05:05:55;;;;;;;9.43;4.53;;;;;;;4.88;55.11;102839.25;5059878;27;97363;-74
2023/02/28 05:08:22;;;;;;;9.20;4.30;;;;;;;4.99;54.41;102840.38;5058347;27;98661;-73
2023/02/28 05:10:48;;;;;;;11.88;4.68;;;;;;;4.96;54.38;102833.31;5064290;27;97495;-73
2023/02/28 05:13:14;;;;;;;12.93;4.40;;;;;;;5.13;53.77;102833.66;5069021;27;97353;-74
2023/02/28 05:15:42;;;;;;;14.07;5.47;;;;;;;4.89;54.75;102834.03;5069820;27;96791;-73
2023/02/28 05:18:09;;;;;;;12.25;4.68;;;;;;;4.97;53.97;102836.84;5067653;27;99139;-73
2023/02/28 05:20:35;;;;;;;9.35;4.47;;;;;;;4.73;54.96;102842.41;5066313;27;98839;-73
2023/02/28 05:23:03;;;;;;;11.75;4.68;;;;;;;4.88;54.22;102841.88;5065718;27;100534;-73
2023/02/28 05:25:29;;;;;;;7.93;3.65;;;;;;;4.88;54.93;102844.47;5070172;27;97171;-74
2023/02/28 05:27:56;;;;;;;12.35;4.35;;;;;;;4.85;54.49;102840.09;5060388;27;99271;-72
2023/02/28 05:30:22;;;;;;;12.57;4.72;;;;;;;4.64;55.04;102848.34;5062965;27;97378;-73
2023/02/28 05:32:52;;;;;;;9.98;4.68;;;;;;;4.81;54.51;102840.84;5065623;27;96946;-74
2023/02/28 05:35:19;;;;;;;11.13;4.25;;;;;;;4.77;54.44;102841.66;5070119;27;97547;-73
2023/02/28 05:37:45;;;;;;;11.75;4.40;;;;;;;4.69;55.32;102844.09;5064512;27;99489;-74
2023/02/28 05:40:12;;;;;;;13.02;4.80;;;;;;;4.77;54.62;102849.50;5065313;27;98734;-72
2023/02/28 05:42:39;;;;;;;12.93;4.30;;;;;;;4.80;55.16;102849.56;5063356;27;97898;-71
2023/02/28 05:45:07;;;;;;;11.85;4.90;;;;;;;4.76;55.74;102851.25;5067974;27;97680;-72
2023/02/28 05:47:34;;;;;;;12.95;4.72;;;;;;;4.67;55.41;102852.75;5065934;27;99014;-73
2023/02/28 05:50:02;;;;;;;12.02;4.70;;;;;;;4.69;55.82;102857.19;5065670;27;98943;-72
2023/02/28 05:52:29;;;;;;;12.57;5.00;;;;;;;4.78;55.15;102860.03;5069441;27;96914;-73
2023/02/28 05:54:56;;;;;;;12.65;5.10;;;;;;;4.95;54.93;102863.00;5064555;27;97155;-72
2023/02/28 05:57:22;;;;;;;11.73;5.18;;;;;;;4.95;54.41;102856.88;5066944;27;99052;-72
2023/02/28 05:59:49;;;;;;;12.38;5.43;;;;;;;4.88;54.57;102861.09;5066356;27;99292;-73
2023/02/28 06:02:17;;;;;;;13.95;5.13;;;;;;;4.83;54.87;102862.75;5062865;27;97247;-72
2023/02/28 06:05:22;;;;;;;11.57;4.97;;;;;;;4.72;55.69;102864.25;5061874;27;96787;-72
2023/02/28 06:07:48;;;;;;;12.20;5.28;;;;;;;4.75;55.55;102861.69;5061198;27;99043;-72
2023/02/28 06:10:15;;;;;;;13.68;4.60;;;;;;;4.94;54.72;102858.59;5055551;27;99022;-73
2023/02/28 06:12:42;;;;;;;12.52;4.82;;;;;;;4.68;55.84;102860.66;5065042;27;96863;-75
2023/02/28 06:15:13;;;;;;;12.73;5.10;;;;;;;4.80;55.18;102865.28;5063989;27;97046;-73
2023/02/28 06:17:44;;;;;;;13.68;4.88;;;;;;;4.84;55.13;102867.13;5060897;27;100674;-74
2023/02/28 06:20:13;;;;;;;9.50;4.70;;;;;;;4.73;55.26;102871.22;5064139;27;101528;-70
2023/02/28 06:22:40;;;;;;;11.35;4.70;;;;;;;4.99;54.77;102880.53;5067362;27;96882;-73
2023/02/28 06:25:07;;;;;;;14.20;4.95;;;;;;;5.02;54.55;102870.13;5060733;27;96886;-72
2023/02/28 06:27:39;;;;;;;10.40;4.35;;;;;;;5.12;54.17;102872.06;5063992;27;98412;-73
2023/02/28 06:30:07;;;;;;;10.13;4.70;;;;;;;4.89;54.43;102875.97;5061419;27;99022;-74
2023/02/28 06:32:34;;;;;;;12.35;4.85;;;;;;;5.09;54.33;102877.28;5063584;27;97128;-72
2023/02/28 06:35:00;;;;;;;13.85;5.32;;;;;;;5.14;54.13;102891.34;5056564;27;97612;-73
2023/02/28 06:37:28;;;;;;;10.43;4.80;;;;;;;5.15;54.44;102887.00;5062323;27;103211;-73
2023/02/28 06:39:56;;;;;;;12.88;5.43;;;;;;;5.47;53.10;102890.25;5059137;27;99269;-73
2023/02/28 06:42:24;;;;;;;11.98;5.15;;;;;;;5.48;53.07;102886.78;5059875;27;97736;-72
2023/02/28 06:44:51;;;;;;;16.75;6.82;;;;;;;5.39;53.44;102897.06;5062274;27;97252;-72
2023/02/28 06:47:17;;;;;;;12.43;5.25;;;;;;;5.81;52.77;102897.91;5060794;27;98919;-71
2023/02/28 06:49:44;;;;;;;12.27;5.07;;;;;;;5.56;52.77;102896.56;5060188;27;99194;-72
2023/02/28 06:52:11;;;;;;;13.77;5.38;;;;;;;5.68;52.60;102898.53;5055140;27;97503;-72
2023/02/28 06:54:39;;;;;;;12.43;5.45;;;;;;;5.78;52.22;102897.84;5064752;27;96905;-72
2023/02/28 06:57:05;;;;;;;15.32;5.50;;;;;;;6.03;51.90;102898.34;5065369;27;102034;-72
2023/02/28 06:59:33;;;;;;;14.55;6.03;;;;;;;5.85;52.09;102904.06;5061106;27;101477;-72
2023/02/28 07:02:10;;;;;;;14.02;6.05;;;;;;;5.97;51.86;102906.97;5068132;27;96795;-74
2023/02/28 07:04:44;;;;;;;10.63;5.30;;;;;;;6.16;52.11;102900.31;5069441;27;96810;-73
2023/02/28 07:07:11;;;;;;;17.55;6.00;;;;;;;6.52;50.99;102906.13;5066097;27;98478;-72
2023/02/28 07:09:38;;;;;;;13.15;5.60;;;;;;;6.67;50.52;102895.88;5070939;27;98821;-72
2023/02/28 07:12:06;;;;;;;12.15;5.93;;;;;;;6.69;50.11;102904.66;5067405;27;97558;-72
2023/02/28 07:14:32;;;;;;;10.70;5.50;;;;;;;6.51;50.37;102901.72;5066307;27;96867;-73
2023/02/28 07:17:03;;;;;;;11.43;5.07;;;;;;;6.61;49.92;102903.66;5069460;27;99226;-75
2023/02/28 07:19:32;;;;;;;14.13;5.57;;;;;;;6.45;49.51;102904.28;5070919;27;98902;-75
2023/02/28 07:22:02;;;;;;;17.77;6.65;;;;;;;6.96;48.85;102905.88;5067021;27;97009;-76
2023/02/28 07:24:31;;;;;;;16.30;7.13;;;;;;;6.89;49.43;102901.44;5065665;27;97192;-75
2023/02/28 07:27:01;;;;;;;18.48;6.75;;;;;;;6.86;49.42;102904.88;5071747;27;98893;-74
2023/02/28 07:29:28;;;;;;;25.13;7.47;;;;;;;7.11;48.22;102900.84;5070397;27;98837;-75
2023/02/28 07:31:55;;;;;;;17.95;7.00;;;;;;;6.98;47.72;102906.78;5067794;27;97093;-72
2023/02/28 07:34:22;;;;;;;17.75;7.15;;;;;;;7.12;46.89;102908.75;5067912;27;97134;-72
2023/02/28 07:36:48;;;;;;;20.50;6.45;;;;;;;7.22;46.48;102911.50;5070264;27;99262;-71
2023/02/28 07:39:15;;;;;;;21.05;6.78;;;;;;;7.22;46.05;102903.63;5068506;27;99382;-71
2023/02/28 07:41:43;;;;;;;21.15;8.18;;;;;;;7.61;46.43;102910.19;5063858;27;96940;-72
2023/02/28 07:44:11;;;;;;;19.52;7.95;;;;;;;7.69;46.30;102905.03;5069395;27;96876;-72
2023/02/28 07:46:37;;;;;;;22.13;6.47;;;;;;;7.71;45.10;102905.06;5064592;27;99399;-72
2023/02/28 07:49:04;;;;;;;17.67;7.22;;;;;;;7.78;45.19;102905.13;5069759;27;100933;-73
2023/02/28 07:51:31;;;;;;;18.55;5.65;;;;;;;8.07;43.66;102908.06;5061956;27;97464;-73
2023/02/28 07:53:58;;;;;;;10.32;4.72;;;;;;;8.21;40.33;102905.50;5066220;27;98532;-72
2023/02/28 07:56:24;;;;;;;11.25;4.80;;;;;;;8.01;40.43;102907.97;5065175;27;99348;-73
2023/02/28 07:58:51;;;;;;;8.93;3.88;;;;;;;8.39;38.86;102913.63;5070831;27;99059;-72
2023/02/28 08:01:19;;;;;;;13.02;3.13;;;;;;;8.43;36.62;102901.34;5061583;27;96805;-72
2023/02/28 08:03:45;;;;;;;15.73;5.47;;;;;;;8.13;38.28;102908.13;5068101;27;97306;-72
2023/02/28 08:06:18;;;;;;;6.53;3.30;;;;;;;8.51;36.44;102912.84;5065613;27;97809;-73
2023/02/28 08:08:45;;;;;;;18.38;2.97;;;;;;;8.48;35.59;102913.69;5066051;27;97816;-74
2023/02/28 08:11:11;;;;;;;9.20;2.28;;;;;;;8.04;33.39;102904.50;5065499;27;97426;-73
2023/02/28 08:13:42;;;;;;;8.40;2.35;;;;;;;8.50;34.02;102911.06;5061485;27;98046;-74
2023/02/28 08:16:08;;;;;;;9.88;2.17;;;;;;;8.42;33.08;102910.13;5064553;27;101898;-75
2023/02/28 08:18:36;;;;;;;12.23;3.05;;;;;;;8.49;32.82;102909.28;5070228;27;98621;-74
2023/02/28 08:21:07;;;;;;;5.85;2.70;;;;;;;8.31;32.59;102915.31;5062515;27;96765;-74
2023/02/28 08:23:34;;;;;;;15.60;2.60;;;;;;;8.58;32.47;102904.09;5065224;27;96666;-73
2023/02/28 08:26:01;;;;;;;9.63;2.55;;;;;;;8.80;32.53;102898.97;5055307;27;102018;-74
2023/02/28 08:28:28;;;;;;;10.30;2.25;;;;;;;8.86;32.42;102907.81;5066098;27;98333;-74
2023/02/28 08:30:55;;;;;;;7.47;2.35;;;;;;;9.22;32.36;102907.09;5061012;27;97325;-72
2023/02/28 08:33:22;;;;;;;5.70;2.75;;;;;;;8.97;31.37;102906.97;5070104;27;96950;-74
2023/02/28 08:35:53;;;;;;;4.20;1.83;;;;;;;9.13;30.47;102911.44;5061218;27;99576;-73
2023/02/28 08:38:19;;;;;;;9.35;2.20;;;;;;;9.30;30.88;102911.53;5068481;27;99434;-74
2023/02/28 08:40:46;;;;;;;8.18;3.10;;;;;;;9.41;30.96;102903.66;5071278;27;96687;-74
2023/02/28 08:43:12;;;;;;;10.20;3.10;;;;;;;9.54;30.57;102908.09;5064277;27;96740;-74
2023/02/28 08:45:39;;;;;;;5.05;2.22;;;;;;;9.48;30.48;102923.91;5069755;27;100982;-74
2023/02/28 08:48:08;;;;;;;10.65;2.55;;;;;;;9.48;29.49;102905.44;5066628;27;99572;-74
2023/02/28 08:50:34;;;;;;;9.80;2.25;;;;;;;9.48;30.10;102916.00;5064806;27;97327;-74
2023/02/28 08:53:02;;;;;;;9.27;2.17;;;;;;;10.03;29.39;102910.84;5061397;27;98281;-74
2023/02/28 08:55:29;;;;;;;4.57;2.33;;;;;;;10.08;28.83;102909.97;5065670;27;99325;-74
2023/02/28 08:57:55;;;;;;;12.68;2.03;;;;;;;9.78;28.65;102908.13;5068569;27;97824;-73
2023/02/28 09:00:23;;;;;;;19.70;6.93;;;;;;;9.73;29.07;102912.53;5062817;27;98617;-74
2023/02/28 09:02:49;;;;;;;6.95;1.50;;;;;;;9.69;28.62;102912.53;5060494;27;97857;-74
2023/02/28 09:05:16;;;;;;;3.85;1.40;;;;;;;9.99;28.21;102908.19;5065026;27;97783;-73
2023/02/28 09:07:42;;;;;;;4.00;1.52;;;;;;;9.97;28.54;102915.25;5065917;27;99080;-74
2023/02/28 09:10:11;;;;;;;3.40;1.73;;;;;;;9.99;28.30;102910.81;5070502;27;96745;-73
2023/02/28 09:12:37;;;;;;;2.88;1.30;;;;;;;9.65;28.20;102916.06;5069952;27;96979;-74
2023/02/28 09:15:05;;;;;;;5.15;1.60;;;;;;;9.95;28.27;102909.06;5061956;27;98897;-72
2023/02/28 09:17:31;;;;;;;3.67;1.80;;;;;;;10.10;28.19;102912.59;5070282;27;97914;-73
2023/02/28 09:19:58;;;;;;;5.35;1.83;;;;;;;9.84;28.10;102915.22;5068982;27;98838;-73
2023/02/28 09:22:25;;;;;;;3.08;1.52;;;;;;;10.10;28.24;102918.78;5066173;27;97308;-74
2023/02/28 09:24:52;;;;;;;7.88;2.10;;;;;;;10.36;28.30;102909.13;5066903;27;98922;-73
2023/02/28 09:27:19;;;;;;;5.35;1.52;;;;;;;10.04;27.32;102917.88;5076308;27;98883;-74
2023/02/28 09:29:46;;;;;;;7.22;1.77;;;;;;;9.82;28.04;102909.94;5074771;27;96737;-76
2023/02/28 09:32:13;;;;;;;4.05;1.45;;;;;;;10.17;28.27;102909.13;5065535;27;101390;-75
2023/02/28 09:34:39;;;;;;;3.28;1.88;;;;;;;10.23;27.51;102903.84;5067440;27;98792;-74
2023/02/28 09:37:06;;;;;;;5.65;2.20;;;;;;;10.78;27.83;102907.28;5068135;27;98790;-75
2023/02/28 09:39:32;;;;;;;5.65;1.98;;;;;;;10.62;27.07;102906.47;5069540;27;97241;-75
2023/02/28 09:41:59;;;;;;;3.45;1.42;;;;;;;10.64;27.22;102903.78;5068739;27;96899;-74
2023/02/28 09:44:32;;;;;;;6.25;1.55;;;;;;;10.57;27.08;102910.84;5067106;27;97762;-75
2023/02/28 09:47:02;;;;;;;4.88;1.55;;;;;;;10.40;27.08;102917.91;5070491;27;98784;-74
2023/02/28 09:49:37;;;;;;;6.07;2.10;;;;;;;10.70;27.15;102912.59;5060607;27;97007;-75
2023/02/28 09:52:08;;;;;;;2.67;1.30;;;;;;;10.47;27.52;102909.09;5062350;27;98872;-74
2023/02/28 09:54:36;;;;;;;2.08;1.35;;;;;;;10.47;27.23;102917.03;5069130;27;98967;-74
2023/02/28 09:57:08;;;;;;;4.53;1.35;;;;;;;10.36;27.62;102910.88;5063298;27;101713;-74
2023/02/28 09:59:44;;;;;;;2.35;1.33;;;;;;;10.49;27.01;102912.63;5066227;27;97223;-73
2023/02/28 10:02:23;;;;;;;6.45;1.92;;;;;;;10.66;27.38;102910.84;5064072;27;97015;-73
2023/02/28 10:04:54;;;;;;;4.82;2.35;;;;;;;10.67;27.73;102907.31;5063789;27;98884;-75
2023/02/28 10:07:38;;;;;;;7.97;2.08;;;;;;;10.50;27.35;102913.53;5054328;27;98865;-74
2023/02/28 10:10:15;;;;;;;3.85;1.75;;;;;;;10.90;26.93;102909.91;5059818;27;96818;-73
2023/02/28 10:12:45;;;;;;;3.00;1.60;;;;;;;10.71;27.08;102909.06;5065863;27;98962;-73
2023/02/28 10:15:16;;;;;;;7.93;2.03;;;;;;;10.94;26.90;102910.78;5063624;27;99146;-75
2023/02/28 10:17:48;;;;;;;2.67;1.50;;;;;;;10.81;27.18;102911.72;5066986;27;99185;-74
2023/02/28 10:20:20;;;;;;;8.20;2.00;;;;;;;10.93;27.10;102909.91;5065766;27;98082;-74
2023/02/28 10:22:54;;;;;;;5.97;1.92;;;;;;;10.94;26.89;102919.59;5067371;27;97729;-75
2023/02/28 10:25:22;;;;;;;5.53;1.63;;;;;;;11.10;26.87;102912.50;5060792;27;101349;-74
2023/02/28 10:27:50;;;;;;;3.95;1.92;;;;;;;11.16;26.98;102912.47;5064128;27;101094;-75
2023/02/28 10:30:18;;;;;;;5.20;3.05;;;;;;;11.32;26.23;102914.19;5059528;27;97345;-75
2023/02/28 10:32:50;;;;;;;6.20;2.08;;;;;;;10.91;26.61;102908.13;5063720;27;97279;-74
2023/02/28 10:35:19;;;;;;;5.32;1.98;;;;;;;10.82;26.91;102911.72;5063921;27;99662;-74
2023/02/28 10:37:47;;;;;;;5.20;2.15;;;;;;;11.04;26.98;102901.94;5067555;27;100172;-73
2023/02/28 10:40:28;;;;;;;3.55;1.58;;;;;;;11.04;26.60;102904.56;5064120;27;96879;-75
2023/02/28 10:43:00;;;;;;;3.55;1.70;;;;;;;11.25;26.85;102906.25;5070682;27;97689;-75
2023/02/28 10:45:31;;;;;;;3.88;1.67;;;;;;;10.86;26.86;102907.28;5062396;27;102571;-75
2023/02/28 10:48:01;;;;;;;6.32;1.90;;;;;;;10.89;27.04;102913.47;5069585;27;98904;-74
2023/02/28 10:50:33;;;;;;;4.72;1.70;;;;;;;10.94;27.23;102910.78;5066596;27;97285;-73
2023/02/28 10:53:15;;;;;;;4.07;1.45;;;;;;;10.78;27.20;102905.53;5062388;27;97916;-75
2023/02/28 10:55:42;;;;;;;6.43;2.47;;;;;;;10.68;27.16;102902.91;5063226;27;99184;-73
2023/02/28 10:58:31;;;;;;;2.67;1.60;;;;;;;10.86;27.08;102894.06;5062970;27;98806;-74
2023/02/28 11:01:15;;;;;;;6.75;2.00;;;;;;;10.59;27.72;102895.00;5068445;27;98847;-73
2023/02/28 11:03:41;;;;;;;4.25;1.58;;;;;;;10.97;27.64;102900.19;5066967;27;97902;-73
2023/02/28 11:06:15;;;;;;;3.22;1.48;;;;;;;11.00;27.52;102884.31;5060058;27;99545;-73
2023/02/28 11:08:48;;;;;;;4.22;1.85;;;;;;;10.81;27.66;102883.50;5069562;27;98830;-73
2023/02/28 11:11:16;;;;;;;10.55;1.90;;;;;;;10.60;27.21;102884.41;5071710;27;98368;-73
2023/02/28 11:13:44;;;;;;;6.28;2.03;;;;;;;11.16;27.43;102880.72;5066298;27;97012;-73
2023/02/28 11:16:15;;;;;;;5.95;2.20;;;;;;;11.06;27.45;102879.00;5068468;27;99877;-72
2023/02/28 11:18:44;;;;;;;6.75;2.03;;;;;;;11.13;27.00;102878.09;5064185;27;98742;-72
2023/02/28 11:21:18;;;;;;;3.95;1.60;;;;;;;10.93;26.95;102867.59;5066004;27;97004;-73
2023/02/28 11:23:45;;;;;;;3.30;1.50;;;;;;;10.62;27.31;102877.38;5063431;27;97256;-73
2023/02/28 11:26:12;;;;;;;5.97;1.80;;;;;;;10.75;27.12;102865.00;5065452;27;99697;-73
2023/02/28 11:28:41;;;;;;;3.72;1.50;;;;;;;10.85;27.31;102863.19;5064778;27;99096;-74
2023/02/28 11:31:19;;;;;;;6.95;2.15;;;;;;;10.72;27.63;102865.88;5064508;27;97376;-72
2023/02/28 11:33:49;;;;;;;4.20;1.92;;;;;;;10.64;27.58;102862.38;5068939;27;97315;-73
2023/02/28 11:36:20;;;;;;;3.92;1.60;;;;;;;10.74;27.86;102865.88;5067594;27;98896;-73
2023/02/28 11:38:49;;;;;;;7.13;1.90;;;;;;;10.59;28.09;102861.50;5062176;27;99168;-74
2023/02/28 11:41:45;;;;;;;3.63;1.70;;;;;;;10.75;27.48;102857.06;5064076;27;97382;-72